Time;durP1;ratioP1;P1;durP2;ratioP2;P2;SDS_P1;SDS_P2;PMS_P1;PMS_P2;Temp;Humidity;BMP_temperature;BMP_pressure;BME280_temperature;BME280_humidity;BME280_pressure;Samples;Min_cycle;Max_cycle;Signal;HPM_P1;HPM_P2
2021/08/24 00:02:23;;;;;;;;;;;;;;;37.07;16.22;94499.47;4899551;29;19919;-67
2021/08/24 00:04:50;;;;;;;;;;;;;;;37.13;16.06;94497.63;4899747;29;19920;-61
2021/08/24 00:07:16;;;;;;;;;;;;;;;37.14;15.95;94499.16;4899504;29;19931;-62
2021/08/24 00:09:45;;;;;;;;;;;;;;;36.95;15.96;94498.38;4899543;29;19927;-62
2021/08/24 00:12:12;;;;;;;;;;;;;;;37.13;15.75;94496.88;4899629;29;19919;-66
2021/08/24 00:14:39;;;;;;;;;;;;;;;37.13;15.78;94497.63;4899129;29;19919;-66
2021/08/24 00:17:07;;;;;;;;;;;;;;;37.09;15.86;94491.59;4899714;29;20212;-65
2021/08/24 00:19:33;;;;;;;;;;;;;;;36.95;16.21;94492.19;4903342;29;19923;-61
2021/08/24 00:22:00;;;;;;;;;;;;;;;36.98;16.02;94497.50;4902799;29;19924;-66
2021/08/24 00:24:27;;;;;;;;;;;;;;;36.90;16.02;94504.44;4883342;29;19948;-58
2021/08/24 00:26:54;;;;;;;;;;;;;;;36.84;16.07;94500.06;4884799;29;19927;-58
2021/08/24 00:29:21;;;;;;;;;;;;;;;36.81;16.05;94493.53;4884734;29;19924;-62
2021/08/24 00:31:48;;;;;;;;;;;;;;;36.81;16.30;94492.78;4884654;29;19936;-57
2021/08/24 00:34:14;;;;;;;;;;;;;;;36.80;16.14;94497.47;4884829;29;19920;-62
2021/08/24 00:36:41;;;;;;;;;;;;;;;36.82;16.26;94499.75;4884637;29;19920;-62
2021/08/24 00:39:08;;;;;;;;;;;;;;;36.69;16.64;94489.72;4884830;29;19927;-62
2021/08/24 00:41:36;;;;;;;;;;;;;;;36.70;16.46;94498.66;4884348;29;20300;-57
2021/08/24 00:44:06;;;;;;;;;;;;;;;36.69;16.83;94489.72;4884532;29;19924;-60
2021/08/24 00:46:35;;;;;;;;;;;;;;;36.60;16.97;94489.69;4884365;29;19933;-59
2021/08/24 00:49:12;;;;;;;;;;;;;;;36.68;17.05;94490.91;4884641;29;20272;-59
2021/08/24 00:51:39;;;;;;;;;;;;;;;36.86;16.84;94492.19;4898728;29;19936;-60
2021/08/24 00:54:10;;;;;;;;;;;;;;;36.77;17.38;94494.88;4898315;29;20204;-59
2021/08/24 00:56:38;;;;;;;;;;;;;;;36.87;17.40;94482.81;4898636;29;19927;-59
2021/08/24 00:59:05;;;;;;;;;;;;;;;36.66;17.90;94492.59;4884448;29;19931;-58
2021/08/24 01:01:32;;;;;;;;;;;;;;;36.78;17.51;94490.94;4884006;29;19920;-59
2021/08/24 01:03:58;;;;;;;;;;;;;;;36.61;18.29;94483.06;4883317;29;19920;-61
2021/08/24 01:06:33;;;;;;;;;;;;;;;36.81;17.47;94473.72;4884213;29;19924;-57
2021/08/24 01:09:06;;;;;;;;;;;;;;;36.69;17.82;94476.09;4897888;29;19927;-58
2021/08/24 01:11:45;;;;;;;;;;;;;;;36.63;17.58;94483.34;4898158;29;20324;-57
2021/08/24 01:14:31;;;;;;;;;;;;;;;36.64;17.96;94479.41;4884219;29;19920;-58
2021/08/24 01:16:57;;;;;;;;;;;;;;;36.68;17.85;94480.03;4883999;29;19930;-59
2021/08/24 01:19:43;;;;;;;;;;;;;;;36.54;17.51;94483.34;4883412;29;19942;-58
2021/08/24 01:22:29;;;;;;;;;;;;;;;36.61;17.66;94477.59;4883203;29;19920;-58
2021/08/24 01:24:56;;;;;;;;;;;;;;;36.57;17.94;94481.69;4884061;29;20316;-61
2021/08/24 01:27:42;;;;;;;;;;;;;;;36.61;17.70;94485.00;4882531;29;19932;-62
2021/08/24 01:30:24;;;;;;;;;;;;;;;36.50;17.84;94482.75;4882501;29;19923;-59
2021/08/24 01:33:23;;;;;;;;;;;;;;;36.60;17.39;94488.94;4886302;29;19927;-56
2021/08/24 01:35:57;;;;;;;;;;;;;;;36.52;17.65;94476.84;4880288;29;19928;-58
2021/08/24 01:38:24;;;;;;;;;;;;;;;36.31;17.84;94484.66;4901794;29;19923;-60
2021/08/24 01:40:56;;;;;;;;;;;;;;;36.44;18.15;94484.53;4901808;29;19928;-61
2021/08/24 01:43:32;;;;;;;;;;;;;;;36.58;17.67;94486.69;4893206;29;19920;-61
2021/08/24 01:46:02;;;;;;;;;;;;;;;36.56;17.79;94486.38;4882822;29;19928;-57
2021/08/24 01:48:32;;;;;;;;;;;;;;;36.34;17.79;94477.56;4896590;29;20341;-59
2021/08/24 01:51:01;;;;;;;;;;;;;;;36.51;17.87;94481.53;4900753;29;19950;-56
2021/08/24 01:53:31;;;;;;;;;;;;;;;36.22;18.06;94483.84;4900300;29;20243;-56
2021/08/24 01:56:07;;;;;;;;;;;;;;;36.35;17.90;94489.94;4901060;29;19924;-59
2021/08/24 01:58:37;;;;;;;;;;;;;;;36.28;18.09;94482.81;4900915;29;20243;-61
2021/08/24 02:01:04;;;;;;;;;;;;;;;36.53;18.01;94490.00;4900973;29;19930;-58
2021/08/24 02:03:32;;;;;;;;;;;;;;;36.09;18.19;94484.69;4900732;29;20235;-57
2021/08/24 02:06:01;;;;;;;;;;;;;;;36.33;18.04;94487.69;4900740;29;19927;-59
2021/08/24 02:08:29;;;;;;;;;;;;;;;35.90;18.74;94488.53;4901661;29;20386;-58
2021/08/24 02:10:56;;;;;;;;;;;;;;;36.06;18.11;94485.59;4896768;29;19923;-58
2021/08/24 02:13:26;;;;;;;;;;;;;;;36.02;18.03;94489.66;4881867;29;19920;-56
2021/08/24 02:15:54;;;;;;;;;;;;;;;36.06;18.45;94485.59;4881992;29;19926;-58
2021/08/24 02:18:23;;;;;;;;;;;;;;;35.90;18.43;94491.25;4894748;29;20246;-55
2021/08/24 02:20:53;;;;;;;;;;;;;;;36.04;17.98;94481.81;4900541;29;19924;-59
2021/08/24 02:23:23;;;;;;;;;;;;;;;35.79;18.07;94488.94;4900225;29;19934;-60
2021/08/24 02:25:50;;;;;;;;;;;;;;;35.71;18.08;94489.66;4901274;29;20064;-58
2021/08/24 02:28:21;;;;;;;;;;;;;;;35.77;18.35;94485.91;4889171;29;20335;-61
2021/08/24 02:30:49;;;;;;;;;;;;;;;35.90;18.01;94483.09;4882635;29;19923;-56
2021/08/24 02:33:16;;;;;;;;;;;;;;;35.50;18.58;94478.34;4887331;29;19923;-58
2021/08/24 02:35:44;;;;;;;;;;;;;;;35.57;18.29;94482.00;4900360;29;19920;-58
2021/08/24 02:38:13;;;;;;;;;;;;;;;35.50;18.53;94472.91;4901105;29;20271;-61
2021/08/24 02:40:52;;;;;;;;;;;;;;;35.51;18.59;94473.69;4900062;29;19924;-58
2021/08/24 02:43:21;;;;;;;;;;;;;;;35.50;18.68;94472.91;4900037;29;20330;-57
2021/08/24 02:46:12;;;;;;;;;;;;;;;35.51;18.70;94469.00;4901038;29;20246;-59
2021/08/24 02:48:39;;;;;;;;;;;;;;;35.59;18.39;94466.00;4893136;29;19926;-57
2021/08/24 02:51:06;;;;;;;;;;;;;;;35.49;18.70;94462.50;4900064;29;19941;-59
2021/08/24 02:53:36;;;;;;;;;;;;;;;35.59;18.75;94468.72;4898468;29;19927;-57
2021/08/24 02:56:03;;;;;;;;;;;;;;;35.40;18.84;94465.94;4900908;29;19939;-57
2021/08/24 02:58:29;;;;;;;;;;;;;;;35.60;18.82;94478.41;4900609;29;20227;-58
2021/08/24 03:00:56;;;;;;;;;;;;;;;35.45;19.00;94470.78;4900719;29;19935;-58
2021/08/24 03:03:23;;;;;;;;;;;;;;;35.40;19.02;94474.06;4900693;29;19923;-60
2021/08/24 03:05:50;;;;;;;;;;;;;;;35.35;19.02;94471.91;4899674;29;19927;-58
2021/08/24 03:08:17;;;;;;;;;;;;;;;35.43;19.10;94473.19;4900571;29;19979;-62
2021/08/24 03:10:44;;;;;;;;;;;;;;;35.37;19.26;94466.03;4887697;29;19927;-59
2021/08/24 03:13:13;;;;;;;;;;;;;;;35.29;19.13;94467.47;4899533;29;20587;-62
2021/08/24 03:15:52;;;;;;;;;;;;;;;35.40;19.01;94468.66;4900606;29;19919;-59
2021/08/24 03:18:18;;;;;;;;;;;;;;;35.41;19.18;94472.88;4900657;29;19920;-57
2021/08/24 03:20:46;;;;;;;;;;;;;;;35.23;19.12;94464.56;4899833;29;19919;-59
2021/08/24 03:23:14;;;;;;;;;;;;;;;35.50;18.92;94477.59;4899376;29;19924;-59
2021/08/24 03:25:42;;;;;;;;;;;;;;;35.11;19.19;94478.97;4899224;29;20170;-58
2021/08/24 03:28:13;;;;;;;;;;;;;;;34.88;19.42;94464.63;4900219;29;20312;-58
2021/08/24 03:30:40;;;;;;;;;;;;;;;35.17;19.18;94474.50;4900165;29;19927;-58
2021/08/24 03:33:07;;;;;;;;;;;;;;;35.16;19.34;94475.69;4899736;29;19924;-58
2021/08/24 03:35:34;;;;;;;;;;;;;;;35.17;19.24;94482.66;4899658;29;19927;-60
2021/08/24 03:38:01;;;;;;;;;;;;;;;34.97;19.46;94469.38;4900033;29;19926;-57
2021/08/24 03:40:28;;;;;;;;;;;;;;;34.91;19.41;94471.13;4900122;29;19920;-62
2021/08/24 03:42:55;;;;;;;;;;;;;;;34.96;19.56;94472.53;4899609;29;19919;-60
2021/08/24 03:45:22;;;;;;;;;;;;;;;35.02;19.48;94471.50;4900029;29;19935;-58
2021/08/24 03:47:49;;;;;;;;;;;;;;;35.03;19.43;94467.59;4899723;29;19923;-56
2021/08/24 03:50:18;;;;;;;;;;;;;;;35.08;19.50;94480.59;4899960;29;20343;-56
2021/08/24 03:52:44;;;;;;;;;;;;;;;35.12;19.31;94475.03;4897901;29;19923;-59
2021/08/24 03:55:12;;;;;;;;;;;;;;;35.07;19.35;94467.47;4895236;29;19928;-52
2021/08/24 03:57:38;;;;;;;;;;;;;;;34.75;19.86;94480.16;4881223;29;20264;-56
2021/08/24 04:00:06;;;;;;;;;;;;;;;34.87;19.71;94471.25;4880142;29;19924;-58
2021/08/24 04:02:39;;;;;;;;;;;;;;;34.77;19.80;94475.03;4894293;29;19920;-60
2021/08/24 04:05:06;;;;;;;;;;;;;;;34.77;19.80;94477.00;4898591;29;19923;-58
2021/08/24 04:07:33;;;;;;;;;;;;;;;34.58;20.13;94481.50;4899673;29;19924;-58
2021/08/24 04:10:00;;;;;;;;;;;;;;;34.64;19.95;94479.75;4899620;29;19926;-60
2021/08/24 04:12:27;;;;;;;;;;;;;;;34.69;20.09;94487.34;4899391;29;19923;-56
2021/08/24 04:14:53;;;;;;;;;;;;;;;35.48;19.32;94483.47;4898358;29;19924;-56
2021/08/24 04:17:20;;;;;;;;;;;;;;;35.67;18.94;94486.31;4892798;29;19924;-57
2021/08/24 04:19:47;;;;;;;;;;;;;;;35.78;18.80;94481.97;4880963;29;20243;-63
2021/08/24 04:22:17;;;;;;;;;;;;;;;36.06;18.58;94480.16;4887150;29;19919;-54
2021/08/24 04:24:43;;;;;;;;;;;;;;;35.24;19.49;94487.81;4897901;29;19935;-69
2021/08/24 04:27:10;;;;;;;;;;;;;;;34.77;20.19;94488.63;4884768;29;19924;-70
2021/08/24 04:29:37;;;;;;;;;;;;;;;34.89;20.19;94490.59;4890876;29;19920;-64
2021/08/24 04:32:04;;;;;;;;;;;;;;;34.68;20.40;94485.84;4898813;29;19923;-57
2021/08/24 04:34:32;;;;;;;;;;;;;;;34.62;20.47;94487.59;4899014;29;19935;-66
2021/08/24 04:36:58;;;;;;;;;;;;;;;34.76;20.51;94495.25;4899437;29;19930;-54
2021/08/24 04:39:25;;;;;;;;;;;;;;;34.63;20.68;94492.59;4899447;29;19919;-57
2021/08/24 04:41:52;;;;;;;;;;;;;;;35.36;19.84;94497.88;4899002;29;19927;-50
2021/08/24 04:44:19;;;;;;;;;;;;;;;36.42;18.51;94495.09;4891848;29;19923;-49
2021/08/24 04:46:46;;;;;;;;;;;;;;;36.58;18.81;94500.28;4896756;29;19924;-64
2021/08/24 04:49:14;;;;;;;;;;;;;;;37.05;18.23;94496.44;4887246;29;19924;-65
2021/08/24 04:51:41;;;;;;;;;;;;;;;36.48;18.49;94498.00;4885601;29;19935;-57
2021/08/24 04:54:08;;;;;;;;;;;;;;;37.51;17.51;94493.69;4894639;29;20239;-69
2021/08/24 04:56:34;;;;;;;;;;;;;;;37.48;17.83;94495.38;4899140;29;19923;-54
2021/08/24 04:59:01;;;;;;;;;;;;;;;37.76;17.64;94504.28;4897951;29;19919;-69
2021/08/24 05:01:28;;;;;;;;;;;;;;;38.24;17.05;94501.69;4892166;29;19923;-70
2021/08/24 05:03:55;;;;;;;;;;;;;;;38.22;16.73;94498.66;4881439;29;19931;-71
2021/08/24 05:06:22;;;;;;;;;;;;;;;38.36;16.64;94499.97;4884065;29;19924;-73
2021/08/24 05:08:49;;;;;;;;;;;;;;;38.42;16.90;94504.31;4890150;29;19923;-73
2021/08/24 05:11:16;;;;;;;;;;;;;;;38.46;16.78;94499.44;4902247;29;19923;-73
2021/08/24 05:13:43;;;;;;;;;;;;;;;38.35;16.69;94504.69;4902367;29;19927;-69
2021/08/24 05:16:10;;;;;;;;;;;;;;;38.73;16.40;94492.34;4902343;29;19927;-69
2021/08/24 05:18:37;;;;;;;;;;;;;;;38.68;16.73;94499.19;4901866;29;20377;-67
2021/08/24 05:21:04;;;;;;;;;;;;;;;38.81;16.78;94507.19;4902488;29;19924;-65
2021/08/24 05:23:31;;;;;;;;;;;;;;;37.97;17.40;94507.97;4913266;29;19949;-70
2021/08/24 05:25:59;;;;;;;;;;;;;;;37.80;17.57;94504.88;4920744;29;19923;-74
2021/08/24 05:28:26;;;;;;;;;;;;;;;37.61;18.09;94504.13;4910103;29;20258;-73
2021/08/24 05:30:53;;;;;;;;;;;;;;;37.07;18.61;94504.91;4918850;29;19928;-69
2021/08/24 05:33:20;;;;;;;;;;;;;;;37.13;18.37;94505.81;4903582;29;19928;-71
2021/08/24 05:35:47;;;;;;;;;;;;;;;36.59;19.18;94503.78;4902430;29;19920;-68
2021/08/24 05:38:14;;;;;;;;;;;;;;;36.56;19.21;94505.44;4902639;29;19923;-65
2021/08/24 05:40:41;;;;;;;;;;;;;;;36.51;19.44;94510.72;4902379;29;19923;-68
2021/08/24 05:43:07;;;;;;;;;;;;;;;36.35;19.41;94511.72;4917224;29;20242;-69
2021/08/24 05:45:34;;;;;;;;;;;;;;;36.46;19.81;94512.06;4920956;29;19927;-63
2021/08/24 05:48:01;;;;;;;;;;;;;;;36.73;19.54;94509.41;4920210;29;19930;-71
2021/08/24 05:50:28;;;;;;;;;;;;;;;36.73;19.59;94503.19;4906400;29;19920;-70
2021/08/24 05:52:55;;;;;;;;;;;;;;;36.75;19.26;94511.66;4901669;29;19920;-51
2021/08/24 05:55:22;;;;;;;;;;;;;;;36.80;19.28;94513.06;4885041;29;20308;-73
2021/08/24 05:57:50;;;;;;;;;;;;;;;36.81;19.27;94504.44;4902077;29;19938;-56
2021/08/24 06:00:17;;;;;;;;;;;;;;;36.70;19.17;94510.31;4915674;29;19919;-71
2021/08/24 06:02:46;;;;;;;;;;;;;;;36.94;19.07;94501.56;4904089;29;20227;-53
2021/08/24 06:05:13;;;;;;;;;;;;;;;37.11;19.07;94507.47;4898156;29;19919;-72
2021/08/24 06:07:40;;;;;;;;;;;;;;;36.96;19.16;94496.44;4901681;29;19924;-71
2021/08/24 06:10:07;;;;;;;;;;;;;;;37.28;18.74;94511.44;4901593;29;19927;-60
2021/08/24 06:12:34;;;;;;;;;;;;;;;37.20;18.64;94508.22;4901246;29;19924;-62
2021/08/24 06:15:01;;;;;;;;;;;;;;;37.10;19.19;94508.69;4904192;29;20325;-71
2021/08/24 06:17:28;;;;;;;;;;;;;;;37.34;19.04;94506.91;4920452;29;19919;-71
2021/08/24 06:19:55;;;;;;;;;;;;;;;37.64;18.13;94499.72;4919703;29;19926;-55
2021/08/24 06:22:21;;;;;;;;;;;;;;;37.87;18.45;94504.53;4915403;29;20297;-70
2021/08/24 06:24:48;;;;;;;;;;;;;;;38.22;17.80;94502.16;4920439;29;19919;-55
2021/08/24 06:27:16;;;;;;;;;;;;;;;38.42;17.92;94498.88;4919493;29;20262;-64
2021/08/24 06:29:43;;;;;;;;;;;;;;;38.41;17.51;94502.81;4920601;29;20330;-63
2021/08/24 06:32:20;;;;;;;;;;;;;;;38.43;17.76;94499.63;4919800;29;19927;-70
2021/08/24 06:34:47;;;;;;;;;;;;;;;38.58;17.91;94499.69;4901506;29;19923;-69
2021/08/24 06:37:14;;;;;;;;;;;;;;;38.60;17.70;94498.03;4901541;29;19923;-65
2021/08/24 06:39:41;;;;;;;;;;;;;;;38.20;18.10;94503.81;4901564;29;19927;-65
2021/08/24 06:42:07;;;;;;;;;;;;;;;38.82;17.48;94503.22;4900446;29;19939;-66
2021/08/24 06:44:34;;;;;;;;;;;;;;;38.96;17.26;94496.28;4901368;29;20222;-67
2021/08/24 06:47:01;;;;;;;;;;;;;;;39.63;16.92;94497.56;4919305;29;19927;-70
2021/08/24 06:49:28;;;;;;;;;;;;;;;39.47;17.10;94501.47;4917414;29;19924;-70
2021/08/24 06:51:57;;;;;;;;;;;;;;;39.72;16.83;94497.47;4902759;29;20254;-60
2021/08/24 06:54:29;;;;;;;;;;;;;;;39.31;17.17;94504.69;4919350;29;20365;-65
2021/08/24 06:56:57;;;;;;;;;;;;;;;39.67;16.79;94509.06;4918705;29;19926;-70
2021/08/24 06:59:24;;;;;;;;;;;;;;;39.28;17.22;94516.53;4919993;29;19923;-59
2021/08/24 07:01:50;;;;;;;;;;;;;;;39.71;16.64;94509.63;4918299;29;19927;-58
2021/08/24 07:04:17;;;;;;;;;;;;;;;39.74;16.55;94523.13;4919906;29;19930;-70
2021/08/24 07:06:48;;;;;;;;;;;;;;;40.05;16.46;94500.75;4918826;29;19927;-66
2021/08/24 07:09:14;;;;;;;;;;;;;;;39.82;16.85;94514.53;4900733;29;19927;-70
2021/08/24 07:11:41;;;;;;;;;;;;;;;40.43;15.87;94501.09;4900918;29;19924;-70
2021/08/24 07:14:08;;;;;;;;;;;;;;;40.18;16.05;94500.47;4918696;29;19923;-67
2021/08/24 07:16:35;;;;;;;;;;;;;;;40.53;15.83;94505.19;4905394;29;20252;-69
2021/08/24 07:19:02;;;;;;;;;;;;;;;40.58;15.88;94501.78;4900339;29;19919;-64
2021/08/24 07:21:29;;;;;;;;;;;;;;;40.58;15.74;94507.25;4899675;29;19919;-64
2021/08/24 07:23:56;;;;;;;;;;;;;;;40.76;15.58;94500.78;4916279;29;19923;-63
2021/08/24 07:26:23;;;;;;;;;;;;;;;41.06;15.37;94498.66;4918541;29;20254;-65
2021/08/24 07:28:50;;;;;;;;;;;;;;;41.32;15.56;94496.72;4918126;29;19919;-68
2021/08/24 07:31:17;;;;;;;;;;;;;;;41.28;15.57;94496.19;4918375;29;19919;-58
2021/08/24 07:33:44;;;;;;;;;;;;;;;41.37;15.47;94496.03;4918830;29;19958;-67
2021/08/24 07:36:11;;;;;;;;;;;;;;;41.32;14.99;94496.72;4917816;29;19927;-53
2021/08/24 07:38:38;;;;;;;;;;;;;;;41.85;14.51;94495.50;4901810;29;19923;-65
2021/08/24 07:41:05;;;;;;;;;;;;;;;41.41;14.98;94493.84;4902513;29;19919;-70
2021/08/24 07:43:32;;;;;;;;;;;;;;;41.86;14.63;94486.03;4904088;29;19919;-69
2021/08/24 07:45:59;;;;;;;;;;;;;;;41.42;15.08;94484.38;4899959;29;20346;-68
2021/08/24 07:48:27;;;;;;;;;;;;;;;41.61;14.72;94484.03;4899625;29;19928;-69
2021/08/24 07:50:54;;;;;;;;;;;;;;;40.71;15.57;94477.56;4899860;29;19927;-59
2021/08/24 07:53:22;;;;;;;;;;;;;;;41.10;15.23;94480.00;4902740;29;20255;-70
2021/08/24 07:55:50;;;;;;;;;;;;;;;41.01;15.04;94483.66;4899788;29;19954;-65
2021/08/24 07:58:17;;;;;;;;;;;;;;;40.72;15.27;94483.78;4899178;29;19926;-65
2021/08/24 08:00:44;;;;;;;;;;;;;;;41.04;15.35;94481.94;4898771;29;19923;-67
2021/08/24 08:03:11;;;;;;;;;;;;;;;41.06;15.09;94474.00;4906994;29;19919;-67
2021/08/24 08:05:38;;;;;;;;;;;;;;;41.18;14.99;94486.59;4899429;29;19920;-61
2021/08/24 08:08:05;;;;;;;;;;;;;;;40.90;15.12;94481.56;4899821;29;20353;-55
2021/08/24 08:10:32;;;;;;;;;;;;;;;40.98;15.26;94482.63;4899751;29;20327;-61
2021/08/24 08:13:00;;;;;;;;;;;;;;;41.12;14.84;94488.50;4905962;29;20271;-69
2021/08/24 08:15:31;;;;;;;;;;;;;;;41.50;14.28;94479.22;4899819;29;19935;-55
2021/08/24 08:18:01;;;;;;;;;;;;;;;41.29;14.63;94481.25;4899312;29;19920;-55
2021/08/24 08:20:29;;;;;;;;;;;;;;;41.66;14.17;94486.13;4899442;29;20247;-53
2021/08/24 08:22:56;;;;;;;;;;;;;;;41.70;14.00;94489.41;4897931;29;19923;-66
2021/08/24 08:25:22;;;;;;;;;;;;;;;41.61;14.33;94484.78;4917645;29;19930;-69
2021/08/24 08:27:49;;;;;;;;;;;;;;;41.90;14.54;94486.56;4917960;29;19927;-64
2021/08/24 08:30:16;;;;;;;;;;;;;;;42.07;14.26;94481.97;4905264;29;20246;-69
2021/08/24 08:32:43;;;;;;;;;;;;;;;41.92;13.63;94478.59;4905403;29;19919;-68
2021/08/24 08:35:11;;;;;;;;;;;;;;;42.00;13.70;94467.91;4901734;29;19923;-69
2021/08/24 08:37:38;;;;;;;;;;;;;;;42.02;13.66;94477.16;4918746;29;20251;-68
2021/08/24 08:40:05;;;;;;;;;;;;;;;42.26;13.58;94465.13;4920738;29;19974;-67
2021/08/24 08:42:38;;;;;;;;;;;;;;;41.85;13.91;94471.53;4909521;29;19919;-71
2021/08/24 08:45:10;;;;;;;;;;;;;;;42.14;13.70;94470.53;4902575;29;19927;-66
2021/08/24 08:47:39;;;;;;;;;;;;;;;42.18;13.36;94464.84;4886988;29;20243;-70
2021/08/24 08:50:25;;;;;;;;;;;;;;;42.39;13.71;94457.19;4903192;29;20235;-67
2021/08/24 08:52:57;;;;;;;;;;;;;;;42.32;13.36;94458.41;4916322;29;19919;-67
2021/08/24 08:55:34;;;;;;;;;;;;;;;42.15;13.26;94461.06;4921562;29;19927;-70
2021/08/24 08:58:01;;;;;;;;;;;;;;;42.40;13.39;94461.44;4905380;29;20258;-68
2021/08/24 09:00:51;;;;;;;;;;;;;;;42.29;13.44;94464.16;4921892;29;19919;-67
2021/08/24 09:03:19;;;;;;;;;;;;;;;42.33;13.54;94456.41;4911430;29;19930;-51
2021/08/24 09:05:47;;;;;;;;;;;;;;;41.96;13.02;94459.91;4904060;29;19923;-67
2021/08/24 09:08:18;;;;;;;;;;;;;;;42.29;12.85;94456.66;4921946;29;20338;-66
2021/08/24 09:10:46;;;;;;;;;;;;;;;42.29;12.34;94453.16;4921049;29;19956;-63
2021/08/24 09:13:31;;;;;;;;;;;;;;;42.13;12.20;94447.06;4920255;29;19919;-57
2021/08/24 09:16:05;;;;;;;;;;;;;;;42.60;11.55;94455.84;4904095;29;19926;-61
2021/08/24 09:18:38;;;;;;;;;;;;;;;42.22;12.09;94450.88;4904777;29;19919;-69
2021/08/24 09:21:06;;;;;;;;;;;;;;;42.39;11.77;94435.97;4904820;29;20530;-65
2021/08/24 09:23:33;;;;;;;;;;;;;;;42.57;12.13;94434.84;4918392;29;19954;-57
2021/08/24 09:26:05;;;;;;;;;;;;;;;42.46;11.65;94437.53;4921237;29;19923;-69
2021/08/24 09:28:33;;;;;;;;;;;;;;;42.35;11.49;94437.44;4919842;29;19930;-69
2021/08/24 09:31:00;;;;;;;;;;;;;;;42.34;11.79;94438.69;4904344;29;19920;-60
2021/08/24 09:33:28;;;;;;;;;;;;;;;42.69;11.49;94441.91;4918025;29;19920;-70
2021/08/24 09:35:55;;;;;;;;;;;;;;;42.79;11.49;94429.44;4885659;29;19926;-70
2021/08/24 09:38:27;;;;;;;;;;;;;;;42.86;11.86;94441.19;4902394;29;19923;-62
2021/08/24 09:40:55;;;;;;;;;;;;;;;42.78;11.65;94436.19;4917758;29;19919;-69
2021/08/24 09:43:23;;;;;;;;;;;;;;;42.71;11.66;94431.16;4920405;29;19926;-69
2021/08/24 09:45:56;;;;;;;;;;;;;;;42.69;11.57;94425.41;4920047;29;19919;-63
2021/08/24 09:48:23;;;;;;;;;;;;;;;42.94;11.59;94423.78;4919618;29;19923;-63
2021/08/24 09:50:49;;;;;;;;;;;;;;;43.15;11.69;94426.31;4918538;29;19927;-67
2021/08/24 09:53:26;;;;;;;;;;;;;;;43.16;11.84;94422.31;4911166;29;20341;-70
2021/08/24 09:55:53;;;;;;;;;;;;;;;42.94;11.72;94423.00;4900081;29;20354;-69
2021/08/24 09:58:24;;;;;;;;;;;;;;;42.91;11.87;94419.25;4900915;29;19919;-69
2021/08/24 10:01:06;;;;;;;;;;;;;;;42.98;11.62;94412.53;4899643;29;19919;-64
2021/08/24 10:03:44;;;;;;;;;;;;;;;43.07;11.92;94415.78;4884747;29;19919;-70
2021/08/24 10:06:24;;;;;;;;;;;;;;;43.11;11.34;94415.56;4901827;29;19920;-70
2021/08/24 10:08:56;;;;;;;;;;;;;;;43.03;11.20;94403.53;4901995;29;19928;-68
2021/08/24 10:11:32;;;;;;;;;;;;;;;43.71;11.04;94396.88;4901213;29;19930;-63
2021/08/24 10:14:12;;;;;;;;;;;;;;;43.60;11.49;94392.09;4915082;29;19919;-61
2021/08/24 10:16:42;;;;;;;;;;;;;;;43.44;11.46;94392.09;4920529;29;19919;-69
2021/08/24 10:19:11;;;;;;;;;;;;;;;43.53;11.18;94389.13;4903496;29;19919;-69
2021/08/24 10:21:41;;;;;;;;;;;;;;;43.57;11.22;94392.38;4920330;29;19923;-69
2021/08/24 10:24:09;;;;;;;;;;;;;;;43.58;10.96;94382.84;4904568;29;19927;-68
2021/08/24 10:26:36;;;;;;;;;;;;;;;43.18;11.56;94384.81;4900347;29;19931;-69
2021/08/24 10:29:05;;;;;;;;;;;;;;;43.34;11.41;94384.09;4898973;29;19935;-69
2021/08/24 10:31:33;;;;;;;;;;;;;;;43.13;11.66;94385.56;4900538;29;19920;-62
2021/08/24 10:34:01;;;;;;;;;;;;;;;43.49;11.19;94381.13;4900929;29;19920;-69
2021/08/24 10:36:31;;;;;;;;;;;;;;;43.58;11.41;94375.34;4900225;29;19930;-64
2021/08/24 10:39:01;;;;;;;;;;;;;;;43.25;10.99;94375.31;4901112;29;20271;-68
2021/08/24 10:41:28;;;;;;;;;;;;;;;43.56;11.02;94366.09;4919179;29;19927;-62
2021/08/24 10:43:57;;;;;;;;;;;;;;;43.70;11.02;94370.59;4919607;29;20323;-53
2021/08/24 10:46:24;;;;;;;;;;;;;;;43.42;11.31;94361.59;4919522;29;19923;-65
2021/08/24 10:48:51;;;;;;;;;;;;;;;43.30;11.16;94366.34;4919254;29;20362;-68
2021/08/24 10:51:18;;;;;;;;;;;;;;;43.38;11.24;94357.09;4902184;29;19923;-59
2021/08/24 10:53:47;;;;;;;;;;;;;;;43.46;11.17;94364.84;4909221;29;19920;-65
2021/08/24 10:56:18;;;;;;;;;;;;;;;43.59;10.89;94356.84;4900350;29;19927;-70
2021/08/24 10:58:44;;;;;;;;;;;;;;;43.65;10.86;94355.56;4898952;29;20243;-70
2021/08/24 11:01:11;;;;;;;;;;;;;;;43.49;11.36;94356.34;4899874;29;19919;-70
2021/08/24 11:03:44;;;;;;;;;;;;;;;43.54;11.11;94358.34;4900442;29;19920;-67
2021/08/24 11:06:11;;;;;;;;;;;;;;;43.53;10.75;94356.09;4900668;29;20255;-70
2021/08/24 11:09:01;;;;;;;;;;;;;;;43.33;11.41;94344.09;4900611;29;19931;-68
2021/08/24 11:11:34;;;;;;;;;;;;;;;43.65;10.82;94346.56;4891826;29;19919;-55
2021/08/24 11:14:05;;;;;;;;;;;;;;;43.71;11.01;94339.06;4898417;29;19919;-70
2021/08/24 11:16:38;;;;;;;;;;;;;;;43.57;11.26;94348.34;4898225;29;19919;-67
2021/08/24 11:19:10;;;;;;;;;;;;;;;43.48;11.17;94343.09;4900127;29;19924;-67
2021/08/24 11:21:41;;;;;;;;;;;;;;;43.63;10.83;94335.31;4900337;29;19919;-66
2021/08/24 11:24:10;;;;;;;;;;;;;;;43.23;11.15;94334.59;4898492;29;19931;-70
2021/08/24 11:26:43;;;;;;;;;;;;;;;43.44;11.25;94331.56;4899697;29;20255;-59
2021/08/24 11:29:19;;;;;;;;;;;;;;;43.32;11.13;94331.59;4898759;29;19927;-66
2021/08/24 11:31:47;;;;;;;;;;;;;;;43.20;11.08;94335.56;4899768;29;19923;-69
2021/08/24 11:34:19;;;;;;;;;;;;;;;43.42;10.97;94339.59;4898895;29;19919;-66
2021/08/24 11:36:56;;;;;;;;;;;;;;;43.73;10.92;94331.09;4899942;29;19924;-69
2021/08/24 11:39:27;;;;;;;;;;;;;;;43.56;10.86;94338.59;4898922;29;19931;-68
2021/08/24 11:42:02;;;;;;;;;;;;;;;43.56;10.81;94327.59;4899208;29;19927;-69
2021/08/24 11:44:31;;;;;;;;;;;;;;;43.53;10.85;94323.84;4913899;29;19919;-70
2021/08/24 11:47:03;;;;;;;;;;;;;;;43.20;10.78;94330.06;4918983;29;20246;-71
2021/08/24 11:49:36;;;;;;;;;;;;;;;42.96;10.96;94319.56;4887672;29;19928;-61
2021/08/24 11:52:11;;;;;;;;;;;;;;;42.97;10.86;94320.31;4899452;29;20231;-69
2021/08/24 11:54:57;;;;;;;;;;;;;;;42.91;11.29;94325.03;4901839;29;19931;-65
2021/08/24 11:57:42;;;;;;;;;;;;;;;42.85;10.77;94327.75;4903033;29;20322;-69
2021/08/24 12:00:09;;;;;;;;;;;;;;;42.65;10.71;94325.97;4918309;29;19927;-65
2021/08/24 12:02:42;;;;;;;;;;;;;;;42.63;10.85;94317.47;4919024;29;19920;-67
2021/08/24 12:05:29;;;;;;;;;;;;;;;42.56;10.83;94311.72;4897672;29;19920;-68
2021/08/24 12:07:57;;;;;;;;;;;;;;;42.55;11.45;94319.19;4898937;29;20246;-55
2021/08/24 12:10:29;;;;;;;;;;;;;;;42.49;11.43;94318.44;4899019;29;19919;-58
2021/08/24 12:12:58;;;;;;;;;;;;;;;42.84;10.74;94309.75;4899901;29;19935;-58
2021/08/24 12:15:35;;;;;;;;;;;;;;;42.50;11.37;94308.97;4902708;29;19926;-65
2021/08/24 12:18:17;;;;;;;;;;;;;;;42.35;11.41;94311.13;4901721;29;19919;-53
2021/08/24 12:20:45;;;;;;;;;;;;;;;42.54;11.06;94294.97;4904084;29;19920;-58
2021/08/24 12:23:30;;;;;;;;;;;;;;;42.81;11.09;94302.53;4901752;29;19953;-55
2021/08/24 12:25:57;;;;;;;;;;;;;;;42.73;10.96;94294.03;4903155;29;19927;-54
2021/08/24 12:28:24;;;;;;;;;;;;;;;42.86;10.42;94301.03;4902886;29;19923;-56
2021/08/24 12:31:00;;;;;;;;;;;;;;;42.82;10.24;94295.03;4903035;29;19919;-66
2021/08/24 12:33:33;;;;;;;;;;;;;;;42.97;10.22;94295.56;4903277;29;20265;-57
2021/08/24 12:36:20;;;;;;;;;;;;;;;42.66;10.23;94294.50;4902891;29;19921;-59
2021/08/24 12:38:48;;;;;;;;;;;;;;;42.63;10.34;94290.00;4903188;29;19930;-54
2021/08/24 12:41:50;;;;;;;;;;;;;;;43.13;9.82;94285.81;4902181;29;20239;-64
2021/08/24 12:44:19;;;;;;;;;;;;;;;42.68;10.55;94286.53;4853229;29;19924;-57
2021/08/24 12:46:50;;;;;;;;;;;;;;;42.71;10.00;94280.03;4888922;29;19930;-55
2021/08/24 12:49:18;;;;;;;;;;;;;;;42.87;10.63;94280.53;4903112;29;19934;-54
2021/08/24 12:51:45;;;;;;;;;;;;;;;42.67;10.01;94278.75;4903109;29;19920;-56
2021/08/24 12:54:12;;;;;;;;;;;;;;;42.90;10.45;94272.06;4901109;29;19923;-53
2021/08/24 12:56:44;;;;;;;;;;;;;;;42.92;9.96;94266.06;4901130;29;19958;-57
2021/08/24 12:59:26;;;;;;;;;;;;;;;42.77;10.00;94267.03;4900961;29;19923;-53
2021/08/24 13:02:12;;;;;;;;;;;;;;;42.97;9.88;94274.34;4900951;29;19919;-56